Bulldozer — WDD5480 — position and weather

sailwx.info

Track history (hours):
 
Tides and Currents Weather Stations Pressure Air Temp Water Temp Dewpoint Dewpoint Depression Visibility Wind Speed Wind Dir Waves Ship Positions

Bulldozer

Owner: Connecticut Dredge Corp., Inc., Clinton, CT. More information available from US FCC via Universal Licensing System and Coast Guard Vessel Documentation Center.

Last reported at 2017-Oct-19 00:00 UTC. Time now 2017-Oct-19 00:27 UTC.
Position N 41°14' W 072°32'.

Length 18 m; draft 3 m.

Type: Towing. MMSI: 367158980.

Date/timePositionNaut miles runAvg speedWind from/ knotsBaromVisibWave heightAir tempDewpointWater temp
2017-Oct-19 00:00N 41°14' W 072°32'1 2.3
2017-Oct-18 23:28N 41°15' W 072°32'1 1.3
2017-Oct-18 22:55N 41°16' W 072°32'0 0.1
2017-Oct-18 22:25N 41°16' W 072°32'0 0.0
2017-Oct-18 21:55N 41°16' W 072°32'0 0.0
2017-Oct-18 21:25N 41°16' W 072°32'0 0.0
2017-Oct-18 20:55N 41°16' W 072°32'0 0.3
2017-Oct-18 20:30N 41°16' W 072°32'0 0.0
2017-Oct-18 20:00N 41°16' W 072°32'0 0.0
2017-Oct-18 19:30N 41°16' W 072°32'0 0.0
2017-Oct-18 18:54N 41°16' W 072°32'0 0.0
2017-Oct-18 18:30N 41°16' W 072°32'0 0.0
2017-Oct-18 18:00N 41°16' W 072°32'0 0.0
2017-Oct-18 17:18N 41°16' W 072°32'0 0.0
2017-Oct-18 17:00N 41°16' W 072°32'0 0.1
2017-Oct-18 16:29N 41°16' W 072°32'0 0.0
2017-Oct-18 15:59N 41°16' W 072°32'0 0.0
2017-Oct-18 15:29N 41°16' W 072°32'0 0.1
2017-Oct-18 14:59N 41°16' W 072°32'0 0.0
2017-Oct-18 13:59N 41°16' W 072°32'0 0.0
2017-Oct-18 13:29N 41°16' W 072°32'0 0.0
2017-Oct-18 12:59N 41°16' W 072°32'0 0.0
2017-Oct-18 12:29N 41°16' W 072°32'0 0.0
2017-Oct-18 11:59N 41°16' W 072°32'0 0.0
2017-Oct-18 11:29N 41°16' W 072°32'0 0.0
2017-Oct-18 10:59N 41°16' W 072°32'0 0.0
2017-Oct-18 10:29N 41°16' W 072°32'0 0.0
2017-Oct-18 09:53N 41°16' W 072°32'0 0.0
2017-Oct-18 09:29N 41°16' W 072°32'0 0.0
2017-Oct-18 08:47N 41°16' W 072°32'0 0.0
2017-Oct-18 08:29N 41°16' W 072°32'0 0.0
2017-Oct-18 07:59N 41°16' W 072°32'0 0.0
2017-Oct-18 07:29N 41°16' W 072°32'0 0.0
2017-Oct-18 06:59N 41°16' W 072°32'0 0.0
2017-Oct-18 06:29N 41°16' W 072°32'0 0.0
2017-Oct-18 05:59N 41°16' W 072°32'0 0.0
2017-Oct-18 05:29N 41°16' W 072°32'0 0.0
2017-Oct-18 04:59N 41°16' W 072°32'0 0.0
2017-Oct-18 04:29N 41°16' W 072°32'0 0.0
2017-Oct-18 04:01N 41°16' W 072°32'0 0.5
2017-Oct-18 03:31N 41°16' W 072°31'1 1.1
2017-Oct-18 03:01N 41°16' W 072°32'1 1.5
2017-Oct-18 02:31N 41°15' W 072°32'0 0.5
2017-Oct-18 02:01N 41°15' W 072°32'1 1.4
2017-Oct-18 01:31N 41°15' W 072°32'1 1.5
2017-Oct-18 01:01N 41°16' W 072°32'0 0.0
2017-Oct-18 00:26N 41°16' W 072°32'0 0.0
2017-Oct-17 23:56N 41°16' W 072°32'0 0.0
2017-Oct-17 23:26N 41°16' W 072°32'0 0.0
2017-Oct-17 22:56N 41°16' W 072°32'0 0.0
2017-Oct-17 22:26N 41°16' W 072°32'0 0.0
2017-Oct-17 21:56N 41°16' W 072°32'0 0.0
2017-Oct-17 21:26N 41°16' W 072°32'0 0.3
2017-Oct-17 21:00N 41°16' W 072°32'2 3.4
2017-Oct-17 20:30N 41°14' W 072°32'3 5.2
2017-Oct-17 20:00N 41°14' W 072°36'3 5.9
2017-Oct-17 19:30N 41°14' W 072°39'3 5.9
2017-Oct-17 19:00N 41°12' W 072°43'1 0.1
2017-Oct-17 14:17N 41°13' W 072°43'1 3.8
2017-Oct-17 14:00N 41°13' W 072°41'2 4.0
2017-Oct-17 13:30N 41°14' W 072°39'2 4.1
2017-Oct-17 13:00N 41°14' W 072°36'2 4.3
2017-Oct-17 12:30N 41°14' W 072°33'2 3.2
2017-Oct-17 12:01N 41°15' W 072°32'1 1.3
2017-Oct-17 11:30N 41°16' W 072°31'0 0.7
2017-Oct-17 11:00N 41°16' W 072°32'0 0.0
2017-Oct-17 10:25N 41°16' W 072°32'0 0.0
2017-Oct-17 09:55N 41°16' W 072°32'0 0.0
2017-Oct-17 09:25N 41°16' W 072°32'0 0.0
2017-Oct-17 08:55N 41°16' W 072°32'0 0.0
2017-Oct-17 08:25N 41°16' W 072°32'0 0.0
2017-Oct-17 07:55N 41°16' W 072°32'0 0.0
2017-Oct-17 07:25N 41°16' W 072°32'0 0.0
2017-Oct-17 06:55N 41°16' W 072°32'0 0.0
2017-Oct-17 06:25N 41°16' W 072°32'0 0.0
2017-Oct-17 05:55N 41°16' W 072°32'0 0.0
2017-Oct-17 05:19N 41°16' W 072°32'0 0.0
2017-Oct-17 04:55N 41°16' W 072°32'0 0.0
2017-Oct-17 04:25N 41°16' W 072°32'0 0.0
2017-Oct-17 03:55N 41°16' W 072°32'0 0.0
2017-Oct-17 03:13N 41°16' W 072°32'0 0.0
2017-Oct-17 02:55N 41°16' W 072°32'0 0.0
2017-Oct-17 02:25N 41°16' W 072°32'0 0.0
2017-Oct-17 02:00N 41°16' W 072°32'0 0.3
2017-Oct-17 01:30N 41°16' W 072°32'1 1.5
2017-Oct-17 01:00N 41°15' W 072°32'0 1.0
2017-Oct-17 00:30N 41°15' W 072°32'2 3.8
2017-Oct-17 00:00N 41°14' W 072°34'2 3.7
2017-Oct-16 23:30N 41°14' W 072°36'2 3.6
2017-Oct-16 23:00N 41°14' W 072°39'2 3.3
2017-Oct-16 22:30N 41°13' W 072°41'2 3.6
2017-Oct-16 22:00N 41°13' W 072°43'0 0.1
2017-Oct-16 16:40N 41°12' W 072°43'1 2.4
2017-Oct-16 16:26N 41°13' W 072°42'1 2.4
2017-Oct-16 15:58N 41°13' W 072°41'1 2.3
2017-Oct-16 15:30N 41°14' W 072°40'1 2.4
2017-Oct-16 15:00N 41°14' W 072°38'1 2.6
2017-Oct-16 14:30N 41°14' W 072°36'3 2.8
2017-Oct-16 13:30N 41°14' W 072°33'1 2.6
2017-Oct-16 13:00N 41°15' W 072°32'0 0.7
2017-Oct-16 12:30N 41°15' W 072°32'1 1.3
2017-Oct-16 12:00N 41°16' W 072°32'0 0.1
2017-Oct-16 11:27N 41°16' W 072°32'0 0.1
2017-Oct-16 10:57N 41°16' W 072°32'0 0.1
2017-Oct-16 10:26N 41°16' W 072°32'0 0.0
2017-Oct-16 09:56N 41°16' W 072°32'0 0.0
2017-Oct-16 09:26N 41°16' W 072°32'0 0.0
2017-Oct-16 08:56N 41°16' W 072°32'0 0.0
2017-Oct-16 08:26N 41°16' W 072°32'0 0.0
2017-Oct-16 07:56N 41°16' W 072°32'0 0.0
2017-Oct-16 07:26N 41°16' W 072°32'0 0.0
2017-Oct-16 06:56N 41°16' W 072°32'0 0.0
2017-Oct-16 06:26N 41°16' W 072°32'0 0.0
2017-Oct-16 05:56N 41°16' W 072°32'0 0.0
2017-Oct-16 05:26N 41°16' W 072°32'0 0.0
2017-Oct-16 04:56N 41°16' W 072°32'0 0.0
2017-Oct-16 04:26N 41°16' W 072°32'0 0.0
2017-Oct-16 03:56N 41°16' W 072°32'0 0.0
2017-Oct-16 03:26N 41°16' W 072°32'0 0.0
2017-Oct-16 02:56N 41°16' W 072°32'0 0.0
2017-Oct-16 02:26N 41°16' W 072°32'0 0.0
2017-Oct-16 01:56N 41°16' W 072°32'0 0.0
2017-Oct-16 01:26N 41°16' W 072°32'0 0.0
2017-Oct-16 00:56N 41°16' W 072°32'0 0.0
2017-Oct-16 00:26N 41°16' W 072°32'0 0.0
2017-Oct-15 23:50N 41°16' W 072°32'0 0.0
2017-Oct-15 23:26N 41°16' W 072°32'0 0.0
2017-Oct-15 22:56N 41°16' W 072°32'0 0.0
2017-Oct-15 22:26N 41°16' W 072°32'0 0.0
2017-Oct-15 21:56N 41°16' W 072°32'0 0.0
2017-Oct-15 21:26N 41°16' W 072°32'0 0.0
2017-Oct-15 20:56N 41°16' W 072°32'0 0.0
2017-Oct-15 20:26N 41°16' W 072°32'0 0.0
2017-Oct-15 19:56N 41°16' W 072°32'0 0.0
2017-Oct-15 19:26N 41°16' W 072°32'0 0.0
2017-Oct-15 18:56N 41°16' W 072°32'0 0.0
2017-Oct-15 18:26N 41°16' W 072°32'0 0.0
2017-Oct-15 17:56N 41°16' W 072°32'0 0.0
2017-Oct-15 17:26N 41°16' W 072°32'0 0.0
2017-Oct-15 16:56N 41°16' W 072°32'0 0.0
2017-Oct-15 16:26N 41°16' W 072°32'0 0.0
2017-Oct-15 15:56N 41°16' W 072°32'0 0.0
2017-Oct-15 15:26N 41°16' W 072°32'0 0.0
2017-Oct-15 14:56N 41°16' W 072°32'0 0.0
2017-Oct-15 13:56N 41°16' W 072°32'0 0.0
2017-Oct-15 13:26N 41°16' W 072°32'0 0.0
2017-Oct-15 12:56N 41°16' W 072°32'0 0.0
2017-Oct-15 12:26N 41°16' W 072°32'0 0.0
2017-Oct-15 11:56N 41°16' W 072°32'0 0.0
2017-Oct-15 11:26N 41°16' W 072°32'0 0.0
2017-Oct-15 10:56N 41°16' W 072°32'0 0.0
2017-Oct-15 10:26N 41°16' W 072°32'0 0.0
2017-Oct-15 09:56N 41°16' W 072°32'0 0.0
2017-Oct-15 09:26N 41°16' W 072°32'0 0.0
2017-Oct-15 08:56N 41°16' W 072°32'0 0.0
2017-Oct-15 08:26N 41°16' W 072°32'0 0.0
2017-Oct-15 07:56N 41°16' W 072°32'0 0.0
2017-Oct-15 07:26N 41°16' W 072°32'0 0.0
2017-Oct-15 06:56N 41°16' W 072°32'0 0.0
2017-Oct-15 06:26N 41°16' W 072°32'0 0.0
2017-Oct-15 05:56N 41°16' W 072°32'0 0.0
2017-Oct-15 05:20N 41°16' W 072°32'0 0.0
2017-Oct-15 04:56N 41°16' W 072°32'0 0.0
2017-Oct-15 04:26N 41°16' W 072°32'0 0.0
2017-Oct-15 03:56N 41°16' W 072°32'0 0.0
2017-Oct-15 03:26N 41°16' W 072°32'0 0.0
2017-Oct-15 02:56N 41°16' W 072°32'0 0.0
2017-Oct-15 02:26N 41°16' W 072°32'0 0.0
2017-Oct-15 01:56N 41°16' W 072°32'0 0.0
2017-Oct-15 01:26N 41°16' W 072°32'0 0.0
2017-Oct-15 00:56N 41°16' W 072°32'0 0.0
2017-Oct-15 00:26N 41°16' W 072°32'0 0.0
2017-Oct-14 23:56N 41°16' W 072°32'0 0.0
2017-Oct-14 23:26N 41°16' W 072°32'0 0.2
2017-Oct-14 22:56N 41°16' W 072°32'0 0.0
2017-Oct-14 22:20N 41°16' W 072°32'0 0.0
2017-Oct-14 21:56N 41°16' W 072°32'0 0.0
2017-Oct-14 21:26N 41°16' W 072°32'0 0.0
2017-Oct-14 21:00N 41°16' W 072°32'0 0.0
2017-Oct-14 20:30N 41°16' W 072°32'0 0.2
2017-Oct-14 20:00N 41°16' W 072°32'1 2.4
2017-Oct-14 19:30N 41°15' W 072°32'2 4.0
2017-Oct-14 19:00N 41°14' W 072°34'2 4.5
2017-Oct-14 18:30N 41°14' W 072°37'2 4.8
2017-Oct-14 18:00N 41°13' W 072°40'2 0.3
2017-Oct-14 12:52N 41°13' W 072°42'1 3.5
2017-Oct-14 12:30N 41°13' W 072°41'2 3.6
2017-Oct-14 12:00N 41°14' W 072°38'2 3.9
2017-Oct-14 11:30N 41°14' W 072°36'2 4.2
2017-Oct-14 11:00N 41°14' W 072°33'2 3.2
2017-Oct-14 10:30N 41°16' W 072°32'1 1.2
2017-Oct-14 10:00N 41°16' W 072°32'0 0.0
2017-Oct-14 09:30N 41°16' W 072°32'0 0.0
2017-Oct-14 09:00N 41°16' W 072°32'0 0.0
2017-Oct-14 08:30N 41°16' W 072°32'0 0.0
2017-Oct-14 08:00N 41°16' W 072°32'0 0.0
2017-Oct-14 07:30N 41°16' W 072°32'0 0.0
2017-Oct-14 07:00N 41°16' W 072°32'0 0.0
2017-Oct-14 06:30N 41°16' W 072°32'0 0.0
2017-Oct-14 06:00N 41°16' W 072°32'0 0.0
2017-Oct-14 05:30N 41°16' W 072°32'0 0.0
2017-Oct-14 05:00N 41°16' W 072°32'0 0.0
2017-Oct-14 04:30N 41°16' W 072°32'0 0.0
2017-Oct-14 04:00N 41°16' W 072°32'0 0.0
2017-Oct-14 03:30N 41°16' W 072°32'0 0.0
2017-Oct-14 03:00N 41°16' W 072°32'0 0.0
2017-Oct-14 02:30N 41°16' W 072°32'0 0.0
2017-Oct-14 02:00N 41°16' W 072°32'0 0.0
2017-Oct-14 01:22N 41°16' W 072°32'0 0.0
2017-Oct-14 00:57N 41°16' W 072°32'0 0.2
2017-Oct-14 00:29N 41°16' W 072°32'0 0.1
2017-Oct-13 23:56N 41°16' W 072°32'0 0.0
2017-Oct-13 23:29N 41°16' W 072°32'1 1.6
2017-Oct-13 23:01N 41°15' W 072°32'1 1.5
2017-Oct-13 22:31N 41°16' W 072°32'0 0.1
2017-Oct-13 22:00N 41°16' W 072°32'0 0.0
2017-Oct-13 21:30N 41°16' W 072°32'0 0.4
2017-Oct-13 21:00N 41°16' W 072°32'1 1.4
2017-Oct-13 20:31N 41°15' W 072°32'0 0.8
2017-Oct-13 20:00N 41°15' W 072°32'1 2.9
2017-Oct-13 19:30N 41°14' W 072°33'1 3.0
2017-Oct-13 19:00N 41°15' W 072°35'2 3.0
2017-Oct-13 18:30N 41°15' W 072°37'1 2.9
2017-Oct-13 18:00N 41°14' W 072°39'1 2.8
2017-Oct-13 17:29N 41°14' W 072°41'1 2.9
2017-Oct-13 17:00N 41°14' W 072°43'3 0.1
2017-Oct-11 21:53N 41°11' W 072°43'1 3.4
2017-Oct-11 21:30N 41°12' W 072°42'2 3.5
2017-Oct-11 21:00N 41°12' W 072°39'2 3.8
2017-Oct-11 20:30N 41°13' W 072°37'2 4.1
2017-Oct-11 20:00N 41°14' W 072°35'2 4.2
2017-Oct-11 19:30N 41°14' W 072°32'1 1.8
2017-Oct-11 19:00N 41°15' W 072°32'1 1.5
2017-Oct-11 18:30N 41°16' W 072°31'0 0.5
2017-Oct-11 18:00N 41°16' W 072°32'0 0.0
2017-Oct-11 17:30N 41°16' W 072°32'0 0.0
2017-Oct-11 17:00N 41°16' W 072°32'2 0.1
2017-Oct-11 00:00N 41°14' W 072°33'3 6.1
2017-Oct-10 23:30N 41°13' W 072°37'7 1.7
2017-Oct-10 19:32N 41°11' W 072°45'1 4.6
2017-Oct-10 19:19N 41°11' W 072°44'1 4.8
2017-Oct-10 19:00N 41°11' W 072°42'2 4.9
2017-Oct-10 18:30N 41°12' W 072°39'3 5.2
2017-Oct-10 18:00N 41°13' W 072°36'3 5.2
2017-Oct-10 17:30N 41°14' W 072°33'2 3.2
2017-Oct-10 16:56N 41°16' W 072°32'0 0.7
2017-Oct-10 16:26N 41°16' W 072°32'0 0.0
2017-Oct-10 15:56N 41°16' W 072°32'0 0.0
2017-Oct-10 15:26N 41°16' W 072°32'0 0.0
2017-Oct-10 14:56N 41°16' W 072°32'0 0.0
2017-Oct-10 13:56N 41°16' W 072°32'0 0.0
2017-Oct-10 13:26N 41°16' W 072°32'0 0.0
2017-Oct-10 12:56N 41°16' W 072°32'0 0.0
2017-Oct-10 12:26N 41°16' W 072°32'0 0.0
2017-Oct-10 11:56N 41°16' W 072°32'0 0.0
2017-Oct-10 11:26N 41°16' W 072°32'0 0.0
2017-Oct-10 10:56N 41°16' W 072°32'0 0.0
2017-Oct-10 10:26N 41°16' W 072°32'0 0.0
2017-Oct-10 09:56N 41°16' W 072°32'0 0.0
2017-Oct-10 09:26N 41°16' W 072°32'0 0.0
2017-Oct-10 08:56N 41°16' W 072°32'0 0.0
2017-Oct-10 08:26N 41°16' W 072°32'0 0.0
2017-Oct-10 07:56N 41°16' W 072°32'0 0.0
2017-Oct-10 07:26N 41°16' W 072°32'0 0.0
2017-Oct-10 06:56N 41°16' W 072°32'0 0.0
2017-Oct-10 06:26N 41°16' W 072°32'0 0.0
2017-Oct-10 05:56N 41°16' W 072°32'0 0.0
2017-Oct-10 05:26N 41°16' W 072°32'0 0.0
2017-Oct-10 04:56N 41°16' W 072°32'0 0.0
2017-Oct-10 04:26N 41°16' W 072°32'0 0.0
2017-Oct-10 03:56N 41°16' W 072°32'0 0.0
2017-Oct-10 03:20N 41°16' W 072°32'0 0.0
2017-Oct-10 02:56N 41°16' W 072°32'0 0.0
2017-Oct-10 02:26N 41°16' W 072°32'0 0.0
2017-Oct-10 01:50N 41°16' W 072°32'0 0.0
2017-Oct-10 01:26N 41°16' W 072°32'0 0.0
2017-Oct-10 00:56N 41°16' W 072°32'0 0.0
2017-Oct-10 00:26N 41°16' W 072°32'0 0.0
2017-Oct-09 23:56N 41°16' W 072°32'0 0.0
2017-Oct-09 23:26N 41°16' W 072°32'0 0.0
2017-Oct-09 22:56N 41°16' W 072°32'0 0.0
2017-Oct-09 22:26N 41°16' W 072°32'0 0.0
2017-Oct-09 21:56N 41°16' W 072°32'0 0.0
2017-Oct-09 21:26N 41°16' W 072°32'0 0.0
2017-Oct-09 20:56N 41°16' W 072°32'0 0.0
2017-Oct-09 20:26N 41°16' W 072°32'0 0.0
2017-Oct-09 19:56N 41°16' W 072°32'0 0.0
2017-Oct-09 19:26N 41°16' W 072°32'0 0.0
2017-Oct-09 18:56N 41°16' W 072°32'0 0.0
2017-Oct-09 18:26N 41°16' W 072°32'0 0.0
2017-Oct-09 17:56N 41°16' W 072°32'0 0.0
2017-Oct-09 17:26N 41°16' W 072°32'0 0.0
2017-Oct-09 16:56N 41°16' W 072°32'0 0.0
2017-Oct-09 16:26N 41°16' W 072°32'0 0.0
2017-Oct-09 15:56N 41°16' W 072°32'0 0.0
2017-Oct-09 15:26N 41°16' W 072°32'0 0.0
2017-Oct-09 14:56N 41°16' W 072°32'0 0.0
2017-Oct-09 14:26N 41°16' W 072°32'0 0.0
2017-Oct-09 13:56N 41°16' W 072°32'0 0.0
2017-Oct-09 13:26N 41°16' W 072°32'0 0.0
2017-Oct-09 12:56N 41°16' W 072°32'0 0.0
2017-Oct-09 12:26N 41°16' W 072°32'0 0.0
2017-Oct-09 11:56N 41°16' W 072°32'0 0.0
2017-Oct-09 11:26N 41°16' W 072°32'0 0.0
2017-Oct-09 10:56N 41°16' W 072°32'0 0.0
2017-Oct-09 10:26N 41°16' W 072°32'0 0.0
2017-Oct-09 09:56N 41°16' W 072°32'0 0.0
2017-Oct-09 09:26N 41°16' W 072°32'0 0.0
2017-Oct-09 08:56N 41°16' W 072°32'0 0.0
2017-Oct-09 08:26N 41°16' W 072°32'0 0.0
2017-Oct-09 07:56N 41°16' W 072°32'0 0.0
2017-Oct-09 07:26N 41°16' W 072°32'0 0.0
2017-Oct-09 06:56N 41°16' W 072°32'0 0.0
2017-Oct-09 06:26N 41°16' W 072°32'0 0.0
2017-Oct-09 05:56N 41°16' W 072°32'0 0.0
2017-Oct-09 05:26N 41°16' W 072°32'0 0.0
2017-Oct-09 04:56N 41°16' W 072°32'0 0.0
2017-Oct-09 04:26N 41°16' W 072°32'0 0.0
2017-Oct-09 03:56N 41°16' W 072°32'0 0.0
2017-Oct-09 03:26N 41°16' W 072°32'0 0.0
2017-Oct-09 02:56N 41°16' W 072°32'0 0.0
2017-Oct-09 02:26N 41°16' W 072°32'0 0.0
2017-Oct-09 01:56N 41°16' W 072°32'0 0.0
2017-Oct-09 01:26N 41°16' W 072°32'0 0.0
2017-Oct-09 00:56N 41°16' W 072°32'0 0.0
2017-Oct-09 00:26N 41°16' W 072°32'  
Track history (hours):
 
Tides and Currents Weather Stations Pressure Air Temp Water Temp Dewpoint Dewpoint Depression Visibility Wind Speed Wind Dir Waves Ship Positions

Bulldozer

Owner: Connecticut Dredge Corp., Inc., Clinton, CT. More information available from US FCC via Universal Licensing System and Coast Guard Vessel Documentation Center.

Last reported at 2017-Oct-19 00:00 UTC. Time now 2017-Oct-19 00:27 UTC.
Position N 41°14' W 072°32'.

Length 18 m; draft 3 m.

Type: Towing. MMSI: 367158980.

Date/timePositionNaut miles runAvg speedWind from/ knotsBaromVisibWave heightAir tempDewpointWater temp
2017-Oct-19 00:00N 41°14' W 072°32'1 2.3
2017-Oct-18 23:28N 41°15' W 072°32'1 1.3
2017-Oct-18 22:55N 41°16' W 072°32'0 0.1
2017-Oct-18 22:25N 41°16' W 072°32'0 0.0
2017-Oct-18 21:55N 41°16' W 072°32'0 0.0
2017-Oct-18 21:25N 41°16' W 072°32'0 0.0
2017-Oct-18 20:55N 41°16' W 072°32'0 0.3
2017-Oct-18 20:30N 41°16' W 072°32'0 0.0
2017-Oct-18 20:00N 41°16' W 072°32'0 0.0
2017-Oct-18 19:30N 41°16' W 072°32'0 0.0
2017-Oct-18 18:54N 41°16' W 072°32'0 0.0
2017-Oct-18 18:30N 41°16' W 072°32'0 0.0
2017-Oct-18 18:00N 41°16' W 072°32'0 0.0
2017-Oct-18 17:18N 41°16' W 072°32'0 0.0
2017-Oct-18 17:00N 41°16' W 072°32'0 0.1
2017-Oct-18 16:29N 41°16' W 072°32'0 0.0
2017-Oct-18 15:59N 41°16' W 072°32'0 0.0
2017-Oct-18 15:29N 41°16' W 072°32'0 0.1
2017-Oct-18 14:59N 41°16' W 072°32'0 0.0
2017-Oct-18 13:59N 41°16' W 072°32'0 0.0
2017-Oct-18 13:29N 41°16' W 072°32'0 0.0
2017-Oct-18 12:59N 41°16' W 072°32'0 0.0
2017-Oct-18 12:29N 41°16' W 072°32'0 0.0
2017-Oct-18 11:59N 41°16' W 072°32'0 0.0
2017-Oct-18 11:29N 41°16' W 072°32'0 0.0
2017-Oct-18 10:59N 41°16' W 072°32'0 0.0
2017-Oct-18 10:29N 41°16' W 072°32'0 0.0
2017-Oct-18 09:53N 41°16' W 072°32'0 0.0
2017-Oct-18 09:29N 41°16' W 072°32'0 0.0
2017-Oct-18 08:47N 41°16' W 072°32'0 0.0
2017-Oct-18 08:29N 41°16' W 072°32'0 0.0
2017-Oct-18 07:59N 41°16' W 072°32'0 0.0
2017-Oct-18 07:29N 41°16' W 072°32'0 0.0
2017-Oct-18 06:59N 41°16' W 072°32'0 0.0
2017-Oct-18 06:29N 41°16' W 072°32'0 0.0
2017-Oct-18 05:59N 41°16' W 072°32'0 0.0
2017-Oct-18 05:29N 41°16' W 072°32'0 0.0
2017-Oct-18 04:59N 41°16' W 072°32'0 0.0
2017-Oct-18 04:29N 41°16' W 072°32'0 0.0
2017-Oct-18 04:01N 41°16' W 072°32'0 0.5
2017-Oct-18 03:31N 41°16' W 072°31'1 1.1
2017-Oct-18 03:01N 41°16' W 072°32'1 1.5
2017-Oct-18 02:31N 41°15' W 072°32'0 0.5
2017-Oct-18 02:01N 41°15' W 072°32'1 1.4
2017-Oct-18 01:31N 41°15' W 072°32'1 1.5
2017-Oct-18 01:01N 41°16' W 072°32'0 0.0
2017-Oct-18 00:26N 41°16' W 072°32'0 0.0
2017-Oct-17 23:56N 41°16' W 072°32'0 0.0
2017-Oct-17 23:26N 41°16' W 072°32'0 0.0
2017-Oct-17 22:56N 41°16' W 072°32'0 0.0
2017-Oct-17 22:26N 41°16' W 072°32'0 0.0
2017-Oct-17 21:56N 41°16' W 072°32'0 0.0
2017-Oct-17 21:26N 41°16' W 072°32'0 0.3
2017-Oct-17 21:00N 41°16' W 072°32'2 3.4
2017-Oct-17 20:30N 41°14' W 072°32'3 5.2
2017-Oct-17 20:00N 41°14' W 072°36'3 5.9
2017-Oct-17 19:30N 41°14' W 072°39'3 5.9
2017-Oct-17 19:00N 41°12' W 072°43'1 0.1
2017-Oct-17 14:17N 41°13' W 072°43'1 3.8
2017-Oct-17 14:00N 41°13' W 072°41'2 4.0
2017-Oct-17 13:30N 41°14' W 072°39'2 4.1
2017-Oct-17 13:00N 41°14' W 072°36'2 4.3
2017-Oct-17 12:30N 41°14' W 072°33'2 3.2
2017-Oct-17 12:01N 41°15' W 072°32'1 1.3
2017-Oct-17 11:30N 41°16' W 072°31'0 0.7
2017-Oct-17 11:00N 41°16' W 072°32'0 0.0
2017-Oct-17 10:25N 41°16' W 072°32'0 0.0
2017-Oct-17 09:55N 41°16' W 072°32'0 0.0
2017-Oct-17 09:25N 41°16' W 072°32'0 0.0
2017-Oct-17 08:55N 41°16' W 072°32'0 0.0
2017-Oct-17 08:25N 41°16' W 072°32'0 0.0
2017-Oct-17 07:55N 41°16' W 072°32'0 0.0
2017-Oct-17 07:25N 41°16' W 072°32'0 0.0
2017-Oct-17 06:55N 41°16' W 072°32'0 0.0
2017-Oct-17 06:25N 41°16' W 072°32'0 0.0
2017-Oct-17 05:55N 41°16' W 072°32'0 0.0
2017-Oct-17 05:19N 41°16' W 072°32'0 0.0
2017-Oct-17 04:55N 41°16' W 072°32'0 0.0
2017-Oct-17 04:25N 41°16' W 072°32'0 0.0
2017-Oct-17 03:55N 41°16' W 072°32'0 0.0
2017-Oct-17 03:13N 41°16' W 072°32'0 0.0
2017-Oct-17 02:55N 41°16' W 072°32'0 0.0
2017-Oct-17 02:25N 41°16' W 072°32'0 0.0
2017-Oct-17 02:00N 41°16' W 072°32'0 0.3
2017-Oct-17 01:30N 41°16' W 072°32'1 1.5
2017-Oct-17 01:00N 41°15' W 072°32'0 1.0
2017-Oct-17 00:30N 41°15' W 072°32'2 3.8
2017-Oct-17 00:00N 41°14' W 072°34'2 3.7
2017-Oct-16 23:30N 41°14' W 072°36'2 3.6
2017-Oct-16 23:00N 41°14' W 072°39'2 3.3
2017-Oct-16 22:30N 41°13' W 072°41'2 3.6
2017-Oct-16 22:00N 41°13' W 072°43'0 0.1
2017-Oct-16 16:40N 41°12' W 072°43'1 2.4
2017-Oct-16 16:26N 41°13' W 072°42'1 2.4
2017-Oct-16 15:58N 41°13' W 072°41'1 2.3
2017-Oct-16 15:30N 41°14' W 072°40'1 2.4
2017-Oct-16 15:00N 41°14' W 072°38'1 2.6
2017-Oct-16 14:30N 41°14' W 072°36'3 2.8
2017-Oct-16 13:30N 41°14' W 072°33'1 2.6
2017-Oct-16 13:00N 41°15' W 072°32'0 0.7
2017-Oct-16 12:30N 41°15' W 072°32'1 1.3
2017-Oct-16 12:00N 41°16' W 072°32'0 0.1
2017-Oct-16 11:27N 41°16' W 072°32'0 0.1
2017-Oct-16 10:57N 41°16' W 072°32'0 0.1
2017-Oct-16 10:26N 41°16' W 072°32'0 0.0
2017-Oct-16 09:56N 41°16' W 072°32'0 0.0
2017-Oct-16 09:26N 41°16' W 072°32'0 0.0
2017-Oct-16 08:56N 41°16' W 072°32'0 0.0
2017-Oct-16 08:26N 41°16' W 072°32'0 0.0
2017-Oct-16 07:56N 41°16' W 072°32'0 0.0
2017-Oct-16 07:26N 41°16' W 072°32'0 0.0
2017-Oct-16 06:56N 41°16' W 072°32'0 0.0
2017-Oct-16 06:26N 41°16' W 072°32'0 0.0
2017-Oct-16 05:56N 41°16' W 072°32'0 0.0
2017-Oct-16 05:26N 41°16' W 072°32'0 0.0
2017-Oct-16 04:56N 41°16' W 072°32'0 0.0
2017-Oct-16 04:26N 41°16' W 072°32'0 0.0
2017-Oct-16 03:56N 41°16' W 072°32'0 0.0
2017-Oct-16 03:26N 41°16' W 072°32'0 0.0
2017-Oct-16 02:56N 41°16' W 072°32'0 0.0
2017-Oct-16 02:26N 41°16' W 072°32'0 0.0
2017-Oct-16 01:56N 41°16' W 072°32'0 0.0
2017-Oct-16 01:26N 41°16' W 072°32'0 0.0
2017-Oct-16 00:56N 41°16' W 072°32'0 0.0
2017-Oct-16 00:26N 41°16' W 072°32'0 0.0
2017-Oct-15 23:50N 41°16' W 072°32'0 0.0
2017-Oct-15 23:26N 41°16' W 072°32'0 0.0
2017-Oct-15 22:56N 41°16' W 072°32'0 0.0
2017-Oct-15 22:26N 41°16' W 072°32'0 0.0
2017-Oct-15 21:56N 41°16' W 072°32'0 0.0
2017-Oct-15 21:26N 41°16' W 072°32'0 0.0
2017-Oct-15 20:56N 41°16' W 072°32'0 0.0
2017-Oct-15 20:26N 41°16' W 072°32'0 0.0
2017-Oct-15 19:56N 41°16' W 072°32'0 0.0
2017-Oct-15 19:26N 41°16' W 072°32'0 0.0
2017-Oct-15 18:56N 41°16' W 072°32'0 0.0
2017-Oct-15 18:26N 41°16' W 072°32'0 0.0
2017-Oct-15 17:56N 41°16' W 072°32'0 0.0
2017-Oct-15 17:26N 41°16' W 072°32'0 0.0
2017-Oct-15 16:56N 41°16' W 072°32'0 0.0
2017-Oct-15 16:26N 41°16' W 072°32'0 0.0
2017-Oct-15 15:56N 41°16' W 072°32'0 0.0
2017-Oct-15 15:26N 41°16' W 072°32'0 0.0
2017-Oct-15 14:56N 41°16' W 072°32'0 0.0
2017-Oct-15 13:56N 41°16' W 072°32'0 0.0
2017-Oct-15 13:26N 41°16' W 072°32'0 0.0
2017-Oct-15 12:56N 41°16' W 072°32'0 0.0
2017-Oct-15 12:26N 41°16' W 072°32'0 0.0
2017-Oct-15 11:56N 41°16' W 072°32'0 0.0
2017-Oct-15 11:26N 41°16' W 072°32'0 0.0
2017-Oct-15 10:56N 41°16' W 072°32'0 0.0
2017-Oct-15 10:26N 41°16' W 072°32'0 0.0
2017-Oct-15 09:56N 41°16' W 072°32'0 0.0
2017-Oct-15 09:26N 41°16' W 072°32'0 0.0
2017-Oct-15 08:56N 41°16' W 072°32'0 0.0
2017-Oct-15 08:26N 41°16' W 072°32'0 0.0
2017-Oct-15 07:56N 41°16' W 072°32'0 0.0
2017-Oct-15 07:26N 41°16' W 072°32'0 0.0
2017-Oct-15 06:56N 41°16' W 072°32'0 0.0
2017-Oct-15 06:26N 41°16' W 072°32'0 0.0
2017-Oct-15 05:56N 41°16' W 072°32'0 0.0
2017-Oct-15 05:20N 41°16' W 072°32'0 0.0
2017-Oct-15 04:56N 41°16' W 072°32'0 0.0
2017-Oct-15 04:26N 41°16' W 072°32'0 0.0
2017-Oct-15 03:56N 41°16' W 072°32'0 0.0
2017-Oct-15 03:26N 41°16' W 072°32'0 0.0
2017-Oct-15 02:56N 41°16' W 072°32'0 0.0
2017-Oct-15 02:26N 41°16' W 072°32'0 0.0
2017-Oct-15 01:56N 41°16' W 072°32'0 0.0
2017-Oct-15 01:26N 41°16' W 072°32'0 0.0
2017-Oct-15 00:56N 41°16' W 072°32'0 0.0
2017-Oct-15 00:26N 41°16' W 072°32'0 0.0
2017-Oct-14 23:56N 41°16' W 072°32'0 0.0
2017-Oct-14 23:26N 41°16' W 072°32'0 0.2
2017-Oct-14 22:56N 41°16' W 072°32'0 0.0
2017-Oct-14 22:20N 41°16' W 072°32'0 0.0
2017-Oct-14 21:56N 41°16' W 072°32'0 0.0
2017-Oct-14 21:26N 41°16' W 072°32'0 0.0
2017-Oct-14 21:00N 41°16' W 072°32'0 0.0
2017-Oct-14 20:30N 41°16' W 072°32'0 0.2
2017-Oct-14 20:00N 41°16' W 072°32'1 2.4
2017-Oct-14 19:30N 41°15' W 072°32'2 4.0
2017-Oct-14 19:00N 41°14' W 072°34'2 4.5
2017-Oct-14 18:30N 41°14' W 072°37'2 4.8
2017-Oct-14 18:00N 41°13' W 072°40'2 0.3
2017-Oct-14 12:52N 41°13' W 072°42'1 3.5
2017-Oct-14 12:30N 41°13' W 072°41'2 3.6
2017-Oct-14 12:00N 41°14' W 072°38'2 3.9
2017-Oct-14 11:30N 41°14' W 072°36'2 4.2
2017-Oct-14 11:00N 41°14' W 072°33'2 3.2
2017-Oct-14 10:30N 41°16' W 072°32'1 1.2
2017-Oct-14 10:00N 41°16' W 072°32'0 0.0
2017-Oct-14 09:30N 41°16' W 072°32'0 0.0
2017-Oct-14 09:00N 41°16' W 072°32'0 0.0
2017-Oct-14 08:30N 41°16' W 072°32'0 0.0
2017-Oct-14 08:00N 41°16' W 072°32'0 0.0
2017-Oct-14 07:30N 41°16' W 072°32'0 0.0
2017-Oct-14 07:00N 41°16' W 072°32'0 0.0
2017-Oct-14 06:30N 41°16' W 072°32'0 0.0
2017-Oct-14 06:00N 41°16' W 072°32'0 0.0
2017-Oct-14 05:30N 41°16' W 072°32'0 0.0
2017-Oct-14 05:00N 41°16' W 072°32'0 0.0
2017-Oct-14 04:30N 41°16' W 072°32'0 0.0
2017-Oct-14 04:00N 41°16' W 072°32'0 0.0
2017-Oct-14 03:30N 41°16' W 072°32'0 0.0
2017-Oct-14 03:00N 41°16' W 072°32'0 0.0
2017-Oct-14 02:30N 41°16' W 072°32'0 0.0
2017-Oct-14 02:00N 41°16' W 072°32'0 0.0
2017-Oct-14 01:22N 41°16' W 072°32'0 0.0
2017-Oct-14 00:57N 41°16' W 072°32'0 0.2
2017-Oct-14 00:29N 41°16' W 072°32'0 0.1
2017-Oct-13 23:56N 41°16' W 072°32'0 0.0
2017-Oct-13 23:29N 41°16' W 072°32'1 1.6
2017-Oct-13 23:01N 41°15' W 072°32'1 1.5
2017-Oct-13 22:31N 41°16' W 072°32'0 0.1
2017-Oct-13 22:00N 41°16' W 072°32'0 0.0
2017-Oct-13 21:30N 41°16' W 072°32'0 0.4
2017-Oct-13 21:00N 41°16' W 072°32'1 1.4
2017-Oct-13 20:31N 41°15' W 072°32'0 0.8
2017-Oct-13 20:00N 41°15' W 072°32'1 2.9
2017-Oct-13 19:30N 41°14' W 072°33'1 3.0
2017-Oct-13 19:00N 41°15' W 072°35'2 3.0
2017-Oct-13 18:30N 41°15' W 072°37'1 2.9
2017-Oct-13 18:00N 41°14' W 072°39'1 2.8
2017-Oct-13 17:29N 41°14' W 072°41'1 2.9
2017-Oct-13 17:00N 41°14' W 072°43'3 0.1
2017-Oct-11 21:53N 41°11' W 072°43'1 3.4
2017-Oct-11 21:30N 41°12' W 072°42'2 3.5
2017-Oct-11 21:00N 41°12' W 072°39'2 3.8
2017-Oct-11 20:30N 41°13' W 072°37'2 4.1
2017-Oct-11 20:00N 41°14' W 072°35'2 4.2
2017-Oct-11 19:30N 41°14' W 072°32'1 1.8
2017-Oct-11 19:00N 41°15' W 072°32'1 1.5
2017-Oct-11 18:30N 41°16' W 072°31'0 0.5
2017-Oct-11 18:00N 41°16' W 072°32'0 0.0
2017-Oct-11 17:30N 41°16' W 072°32'0 0.0
2017-Oct-11 17:00N 41°16' W 072°32'2 0.1
2017-Oct-11 00:00N 41°14' W 072°33'3 6.1
2017-Oct-10 23:30N 41°13' W 072°37'7 1.7
2017-Oct-10 19:32N 41°11' W 072°45'1 4.6
2017-Oct-10 19:19N 41°11' W 072°44'1 4.8
2017-Oct-10 19:00N 41°11' W 072°42'2 4.9
2017-Oct-10 18:30N 41°12' W 072°39'3 5.2
2017-Oct-10 18:00N 41°13' W 072°36'3 5.2
2017-Oct-10 17:30N 41°14' W 072°33'2 3.2
2017-Oct-10 16:56N 41°16' W 072°32'0 0.7
2017-Oct-10 16:26N 41°16' W 072°32'0 0.0
2017-Oct-10 15:56N 41°16' W 072°32'0 0.0
2017-Oct-10 15:26N 41°16' W 072°32'0 0.0
2017-Oct-10 14:56N 41°16' W 072°32'0 0.0
2017-Oct-10 13:56N 41°16' W 072°32'0 0.0
2017-Oct-10 13:26N 41°16' W 072°32'0 0.0
2017-Oct-10 12:56N 41°16' W 072°32'0 0.0
2017-Oct-10 12:26N 41°16' W 072°32'0 0.0
2017-Oct-10 11:56N 41°16' W 072°32'0 0.0
2017-Oct-10 11:26N 41°16' W 072°32'0 0.0
2017-Oct-10 10:56N 41°16' W 072°32'0 0.0
2017-Oct-10 10:26N 41°16' W 072°32'0 0.0
2017-Oct-10 09:56N 41°16' W 072°32'0 0.0
2017-Oct-10 09:26N 41°16' W 072°32'0 0.0
2017-Oct-10 08:56N 41°16' W 072°32'0 0.0
2017-Oct-10 08:26N 41°16' W 072°32'0 0.0
2017-Oct-10 07:56N 41°16' W 072°32'0 0.0
2017-Oct-10 07:26N 41°16' W 072°32'0 0.0
2017-Oct-10 06:56N 41°16' W 072°32'0 0.0
2017-Oct-10 06:26N 41°16' W 072°32'0 0.0
2017-Oct-10 05:56N 41°16' W 072°32'0 0.0
2017-Oct-10 05:26N 41°16' W 072°32'0 0.0
2017-Oct-10 04:56N 41°16' W 072°32'0 0.0
2017-Oct-10 04:26N 41°16' W 072°32'0 0.0
2017-Oct-10 03:56N 41°16' W 072°32'0 0.0
2017-Oct-10 03:20N 41°16' W 072°32'0 0.0
2017-Oct-10 02:56N 41°16' W 072°32'0 0.0
2017-Oct-10 02:26N 41°16' W 072°32'0 0.0
2017-Oct-10 01:50N 41°16' W 072°32'0 0.0
2017-Oct-10 01:26N 41°16' W 072°32'0 0.0
2017-Oct-10 00:56N 41°16' W 072°32'0 0.0
2017-Oct-10 00:26N 41°16' W 072°32'0 0.0
2017-Oct-09 23:56N 41°16' W 072°32'0 0.0
2017-Oct-09 23:26N 41°16' W 072°32'0 0.0
2017-Oct-09 22:56N 41°16' W 072°32'0 0.0
2017-Oct-09 22:26N 41°16' W 072°32'0 0.0
2017-Oct-09 21:56N 41°16' W 072°32'0 0.0
2017-Oct-09 21:26N 41°16' W 072°32'0 0.0
2017-Oct-09 20:56N 41°16' W 072°32'0 0.0
2017-Oct-09 20:26N 41°16' W 072°32'0 0.0
2017-Oct-09 19:56N 41°16' W 072°32'0 0.0
2017-Oct-09 19:26N 41°16' W 072°32'0 0.0
2017-Oct-09 18:56N 41°16' W 072°32'0 0.0
2017-Oct-09 18:26N 41°16' W 072°32'0 0.0
2017-Oct-09 17:56N 41°16' W 072°32'0 0.0
2017-Oct-09 17:26N 41°16' W 072°32'0 0.0
2017-Oct-09 16:56N 41°16' W 072°32'0 0.0
2017-Oct-09 16:26N 41°16' W 072°32'0 0.0
2017-Oct-09 15:56N 41°16' W 072°32'0 0.0
2017-Oct-09 15:26N 41°16' W 072°32'0 0.0
2017-Oct-09 14:56N 41°16' W 072°32'0 0.0
2017-Oct-09 14:26N 41°16' W 072°32'0 0.0
2017-Oct-09 13:56N 41°16' W 072°32'0 0.0
2017-Oct-09 13:26N 41°16' W 072°32'0 0.0
2017-Oct-09 12:56N 41°16' W 072°32'0 0.0
2017-Oct-09 12:26N 41°16' W 072°32'0 0.0
2017-Oct-09 11:56N 41°16' W 072°32'0 0.0
2017-Oct-09 11:26N 41°16' W 072°32'0 0.0
2017-Oct-09 10:56N 41°16' W 072°32'0 0.0
2017-Oct-09 10:26N 41°16' W 072°32'0 0.0
2017-Oct-09 09:56N 41°16' W 072°32'0 0.0
2017-Oct-09 09:26N 41°16' W 072°32'0 0.0
2017-Oct-09 08:56N 41°16' W 072°32'0 0.0
2017-Oct-09 08:26N 41°16' W 072°32'0 0.0
2017-Oct-09 07:56N 41°16' W 072°32'0 0.0
2017-Oct-09 07:26N 41°16' W 072°32'0 0.0
2017-Oct-09 06:56N 41°16' W 072°32'0 0.0
2017-Oct-09 06:26N 41°16' W 072°32'0 0.0
2017-Oct-09 05:56N 41°16' W 072°32'0 0.0
2017-Oct-09 05:26N 41°16' W 072°32'0 0.0
2017-Oct-09 04:56N 41°16' W 072°32'0 0.0
2017-Oct-09 04:26N 41°16' W 072°32'0 0.0
2017-Oct-09 03:56N 41°16' W 072°32'0 0.0
2017-Oct-09 03:26N 41°16' W 072°32'0 0.0
2017-Oct-09 02:56N 41°16' W 072°32'0 0.0
2017-Oct-09 02:26N 41°16' W 072°32'0 0.0
2017-Oct-09 01:56N 41°16' W 072°32'0 0.0
2017-Oct-09 01:26N 41°16' W 072°32'0 0.0
2017-Oct-09 00:56N 41°16' W 072°32'0 0.0
2017-Oct-09 00:26N 41°16' W 072°32'  

Dump ship's entire track history